Time;durP1;ratioP1;P1;durP2;ratioP2;P2;SDS_P1;SDS_P2;PMS_P1;PMS_P2;Temp;Humidity;BMP_temperature;BMP_pressure;BME280_temperature;BME280_humidity;BME280_pressure;Samples;Min_cycle;Max_cycle;Signal;HPM_P1;HPM_P2
2024/01/05 00:01:37;;;;;;;6.57;4.60;;;;;;;10.75;77.64;99989.06;5092197;28;20016;-75
2024/01/05 00:04:02;;;;;;;6.47;4.65;;;;;;;10.64;77.69;99986.47;5071597;28;20530;-74
2024/01/05 00:06:29;;;;;;;7.45;4.35;;;;;;;10.63;77.50;99995.56;5084997;28;20035;-76
2024/01/05 00:08:55;;;;;;;7.18;4.80;;;;;;;10.57;77.66;99998.81;5076655;28;20455;-75
2024/01/05 00:11:21;;;;;;;6.40;4.40;;;;;;;10.60;77.75;100019.19;5088433;28;20093;-76
2024/01/05 00:13:47;;;;;;;5.68;4.13;;;;;;;10.53;77.83;100024.28;5073656;28;20090;-76
2024/01/05 00:16:23;;;;;;;8.57;4.80;;;;;;;10.52;78.68;100025.25;5084400;28;20028;-76
2024/01/05 00:18:49;;;;;;;6.38;4.40;;;;;;;10.47;78.75;100030.22;5073945;28;20046;-75
2024/01/05 00:21:25;;;;;;;12.05;5.18;;;;;;;10.36;78.96;100015.06;5078373;28;20029;-74
2024/01/05 00:23:52;;;;;;;7.53;5.30;;;;;;;10.32;78.98;100028.91;5083055;28;20016;-76
2024/01/05 00:26:18;;;;;;;4.75;4.18;;;;;;;10.17;79.19;100004.25;5070662;28;20106;-76
2024/01/05 00:28:46;;;;;;;9.80;5.05;;;;;;;10.22;79.27;100025.31;5081537;28;20480;-75
2024/01/05 00:31:13;;;;;;;12.05;5.60;;;;;;;10.20;79.62;100028.16;5076879;28;20028;-75
2024/01/05 00:33:40;;;;;;;9.95;5.22;;;;;;;10.19;79.81;100025.59;5087642;28;20104;-75
2024/01/05 00:36:06;;;;;;;7.93;4.75;;;;;;;10.18;79.82;100021.22;5070989;28;20093;-77
2024/01/05 00:38:32;;;;;;;10.68;5.20;;;;;;;10.19;79.58;100025.59;5088310;28;20032;-77
2024/01/05 00:40:57;;;;;;;7.57;5.38;;;;;;;10.24;79.56;100036.81;5088507;28;20024;-75
2024/01/05 00:43:23;;;;;;;9.93;4.80;;;;;;;10.23;79.49;100032.41;5088433;28;20455;-74
2024/01/05 00:45:48;;;;;;;9.70;5.55;;;;;;;10.22;79.27;100038.75;5088326;28;20032;-77
2024/01/05 00:48:14;;;;;;;7.10;5.18;;;;;;;10.17;79.45;100032.97;5088632;28;20028;-74
2024/01/05 00:50:40;;;;;;;7.50;5.38;;;;;;;10.19;79.36;100025.59;5076899;28;20043;-76
2024/01/05 00:53:05;;;;;;;9.77;4.97;;;;;;;10.23;79.22;100029.72;5082107;28;20101;-74
2024/01/05 00:55:31;;;;;;;8.63;4.60;;;;;;;10.27;79.17;100037.34;5080203;28;20739;-78
2024/01/05 00:57:56;;;;;;;10.18;4.68;;;;;;;10.34;79.12;100037.66;5087681;28;20031;-75
2024/01/05 01:00:22;;;;;;;9.27;5.72;;;;;;;10.32;78.93;100029.75;5070748;28;20431;-77
2024/01/05 01:02:47;;;;;;;7.35;5.47;;;;;;;10.17;77.96;100009.63;5081471;28;20452;-75
2024/01/05 01:05:13;;;;;;;7.75;4.97;;;;;;;10.23;77.68;100013.59;5076717;28;20032;-75
2024/01/05 01:07:46;;;;;;;6.20;4.53;;;;;;;10.30;77.72;100047.84;5088199;28;20024;-75
2024/01/05 01:10:12;;;;;;;12.40;6.13;;;;;;;10.18;78.14;100037.34;5087449;28;20031;-75
2024/01/05 01:12:38;;;;;;;6.80;4.57;;;;;;;10.12;77.98;100027.13;5082134;28;20497;-77
2024/01/05 01:15:04;;;;;;;7.18;4.45;;;;;;;10.14;77.77;100035.91;5075558;28;20553;-75
2024/01/05 01:17:30;;;;;;;10.32;4.40;;;;;;;10.11;77.71;100042.38;5087458;28;20440;-77
2024/01/05 01:19:56;;;;;;;8.13;5.63;;;;;;;10.07;77.56;100032.03;5071542;28;20123;-74
2024/01/05 01:22:22;;;;;;;4.20;3.75;;;;;;;9.96;78.17;100024.09;5083539;28;20025;-76
2024/01/05 01:24:47;;;;;;;10.18;4.63;;;;;;;10.12;77.02;100043.25;5073036;28;20048;-76
2024/01/05 01:27:14;;;;;;;8.07;5.03;;;;;;;10.15;76.05;100043.00;5087688;28;20056;-75
2024/01/05 01:29:39;;;;;;;11.05;4.57;;;;;;;10.12;76.37;100043.25;5087626;28;20118;-76
2024/01/05 01:32:05;;;;;;;10.77;5.03;;;;;;;10.22;76.05;100054.88;5088066;28;20543;-77
2024/01/05 01:34:31;;;;;;;6.20;4.43;;;;;;;10.12;75.91;100037.88;5067639;28;20021;-75
2024/01/05 01:36:56;;;;;;;11.38;4.72;;;;;;;10.30;75.52;100047.84;5075591;28;20020;-75
2024/01/05 01:39:22;;;;;;;7.78;4.45;;;;;;;10.17;75.32;100023.06;5082341;28;20012;-78
2024/01/05 01:41:47;;;;;;;8.43;4.55;;;;;;;10.34;74.99;100057.34;5091415;28;20046;-75
2024/01/05 01:44:13;;;;;;;6.43;4.35;;;;;;;10.40;74.39;100066.69;5095837;28;20114;-75
2024/01/05 01:46:39;;;;;;;6.65;4.35;;;;;;;10.46;74.00;100068.81;5075813;28;20408;-73
2024/01/05 01:49:05;;;;;;;8.48;4.78;;;;;;;10.44;73.69;100068.13;5079961;28;20045;-76
2024/01/05 01:51:32;;;;;;;6.00;3.95;;;;;;;10.43;73.71;100069.09;5073601;28;20024;-75
2024/01/05 01:54:04;;;;;;;10.15;4.45;;;;;;;10.48;73.22;100071.38;5086230;28;20499;-75
2024/01/05 01:56:31;;;;;;;7.18;4.55;;;;;;;10.41;73.12;100056.78;5090534;28;20036;-74
2024/01/05 01:58:57;;;;;;;4.85;4.25;;;;;;;10.35;72.84;100042.06;5090902;28;20035;-75
2024/01/05 02:01:22;;;;;;;9.48;3.70;;;;;;;10.52;73.43;100067.44;5083845;28;20605;-73
2024/01/05 02:03:49;;;;;;;6.47;4.00;;;;;;;10.58;73.40;100073.09;5084809;28;20031;-75
2024/01/05 02:06:14;;;;;;;10.75;4.35;;;;;;;10.59;73.61;100073.94;5073565;28;20029;-74
2024/01/05 02:08:40;;;;;;;6.97;4.43;;;;;;;10.65;73.17;100079.63;5089866;28;20028;-76
2024/01/05 02:11:06;;;;;;;11.18;4.88;;;;;;;10.71;73.08;100089.81;5089433;28;20093;-76
2024/01/05 02:13:33;;;;;;;12.63;4.97;;;;;;;10.68;72.66;100079.34;5090553;28;20039;-74
2024/01/05 02:15:59;;;;;;;5.45;3.90;;;;;;;10.75;72.97;100091.25;5090771;28;20032;-75
2024/01/05 02:18:24;;;;;;;8.52;4.75;;;;;;;10.75;73.24;100093.09;5090742;28;20174;-74
2024/01/05 02:20:50;;;;;;;6.35;3.97;;;;;;;10.80;72.90;100098.91;5090560;28;20020;-75
2024/01/05 02:23:28;;;;;;;9.45;4.55;;;;;;;10.80;72.97;100107.81;5091301;28;20043;-74
2024/01/05 02:25:54;;;;;;;7.25;4.32;;;;;;;10.84;73.17;100117.31;5090358;28;20058;-75
2024/01/05 02:28:20;;;;;;;7.38;4.40;;;;;;;10.86;73.22;100111.78;5092556;28;20046;-76
2024/01/05 02:30:46;;;;;;;8.45;4.63;;;;;;;10.69;73.50;100090.97;5093708;28;20515;-75
2024/01/05 02:33:12;;;;;;;16.08;5.03;;;;;;;10.85;74.00;100120.88;5090214;28;20044;-77
2024/01/05 02:35:37;;;;;;;8.77;4.35;;;;;;;10.80;73.57;100110.50;5089487;28;20407;-75
2024/01/05 02:38:03;;;;;;;7.25;4.18;;;;;;;10.77;74.51;100124.25;5089943;28;20066;-75
2024/01/05 02:40:29;;;;;;;6.85;3.78;;;;;;;10.77;74.31;100116.16;5089799;28;20024;-74
2024/01/05 02:42:54;;;;;;;6.03;3.65;;;;;;;10.63;74.62;100107.66;5090060;28;20089;-75
2024/01/05 02:45:21;;;;;;;5.65;3.40;;;;;;;10.58;74.74;100096.47;5090019;28;20039;-77
2024/01/05 02:47:53;;;;;;;9.93;4.00;;;;;;;10.70;74.92;100115.00;5071103;28;20063;-76
2024/01/05 02:50:19;;;;;;;7.78;3.60;;;;;;;10.72;74.89;100118.44;5090867;28;20032;-75
2024/01/05 02:52:45;;;;;;;7.35;4.13;;;;;;;10.72;74.73;100121.13;5089183;28;20070;-75
2024/01/05 02:55:11;;;;;;;10.40;3.92;;;;;;;10.72;74.87;100131.03;5090439;28;20072;-75
2024/01/05 02:57:37;;;;;;;7.00;4.22;;;;;;;10.71;75.01;100130.16;5089870;28;20031;-74
2024/01/05 03:00:04;;;;;;;7.32;3.67;;;;;;;10.77;74.36;100129.63;5089909;28;20135;-77
2024/01/05 03:02:30;;;;;;;6.90;3.95;;;;;;;10.76;74.82;100135.16;5089615;28;20081;-74
2024/01/05 03:04:56;;;;;;;7.22;4.07;;;;;;;10.77;74.47;100151.13;5089735;28;20028;-74
2024/01/05 03:07:22;;;;;;;8.32;4.40;;;;;;;10.56;74.34;100122.63;5103845;28;20051;-75
2024/01/05 03:09:47;;;;;;;5.82;4.30;;;;;;;10.65;74.40;100138.78;5089884;28;20034;-76
2024/01/05 03:12:13;;;;;;;8.85;4.28;;;;;;;10.69;74.98;100140.22;5090216;28;20483;-76
2024/01/05 03:14:38;;;;;;;7.38;4.00;;;;;;;10.61;75.05;100141.91;5091805;28;20075;-74
2024/01/05 03:17:05;;;;;;;4.85;4.03;;;;;;;10.65;74.55;100143.31;5093161;28;20062;-76
2024/01/05 03:19:31;;;;;;;7.95;3.83;;;;;;;10.62;74.89;100148.97;5099576;28;20016;-77
2024/01/05 03:21:56;;;;;;;5.25;4.32;;;;;;;10.52;75.01;100151.63;5093713;28;20035;-75
2024/01/05 03:24:22;;;;;;;6.30;4.68;;;;;;;10.59;75.04;100155.47;5089087;28;20749;-75
2024/01/05 03:26:48;;;;;;;9.45;4.53;;;;;;;10.40;75.07;100138.44;5089150;28;20066;-74
2024/01/05 03:29:14;;;;;;;9.90;4.22;;;;;;;10.52;74.91;100159.69;5089798;28;20028;-75
2024/01/05 03:31:39;;;;;;;8.60;4.22;;;;;;;10.50;75.01;100156.28;5089864;28;20078;-75
2024/01/05 03:34:05;;;;;;;5.82;3.97;;;;;;;10.00;75.23;100077.41;5089326;28;20107;-77
2024/01/05 03:36:30;;;;;;;6.03;4.10;;;;;;;10.38;75.13;100149.31;5089259;28;20016;-75
2024/01/05 03:38:56;;;;;;;7.65;3.70;;;;;;;10.51;75.00;100160.69;5089246;28;20016;-76
2024/01/05 03:41:22;;;;;;;6.68;3.92;;;;;;;10.45;75.07;100169.28;5086814;28;20489;-78
2024/01/05 03:43:47;;;;;;;10.13;4.07;;;;;;;10.36;75.18;100159.34;5090504;28;20137;-79
2024/01/05 03:46:13;;;;;;;4.28;3.60;;;;;;;10.31;75.62;100172.31;5089416;28;20123;-77
2024/01/05 03:48:39;;;;;;;6.40;3.45;;;;;;;10.27;75.57;100163.69;5090337;28;20089;-75
2024/01/05 03:51:05;;;;;;;8.18;3.97;;;;;;;10.35;75.50;100187.22;5089478;28;20103;-75
2024/01/05 03:53:31;;;;;;;4.70;3.92;;;;;;;10.30;75.55;100189.47;5089167;28;20020;-78
2024/01/05 03:55:59;;;;;;;7.05;3.97;;;;;;;10.21;75.97;100187.56;5090589;28;20020;-75
2024/01/05 03:58:25;;;;;;;4.03;3.58;;;;;;;10.13;76.14;100174.78;5088496;28;20119;-77
2024/01/05 04:00:50;;;;;;;10.15;4.10;;;;;;;10.18;76.27;100194.03;5089087;28;20034;-76
2024/01/05 04:03:19;;;;;;;5.82;4.18;;;;;;;10.19;76.54;100211.88;5090186;28;20055;-74
2024/01/05 04:05:45;;;;;;;8.52;4.25;;;;;;;10.14;76.35;100197.13;5089368;28;20713;-76
2024/01/05 04:08:10;;;;;;;5.85;3.88;;;;;;;10.30;76.42;100219.03;5100760;28;20060;-75
2024/01/05 04:10:37;;;;;;;10.70;4.30;;;;;;;10.25;76.12;100222.09;5103649;28;20092;-77
2024/01/05 04:13:03;;;;;;;7.43;4.22;;;;;;;10.27;76.43;100230.88;5090871;28;20028;-75
2024/01/05 04:15:30;;;;;;;6.07;4.47;;;;;;;10.27;75.94;100240.78;5088208;28;20040;-76
2024/01/05 04:17:56;;;;;;;13.75;5.57;;;;;;;10.25;75.75;100237.38;5088195;28;20720;-74
2024/01/05 04:20:22;;;;;;;5.95;3.85;;;;;;;10.28;76.00;100242.47;5088046;28;20103;-75
2024/01/05 04:22:47;;;;;;;8.80;4.38;;;;;;;10.22;76.15;100238.47;5086971;28;20097;-73
2024/01/05 04:25:13;;;;;;;7.70;4.00;;;;;;;10.31;75.87;100275.31;5088072;28;20096;-76
2024/01/05 04:27:38;;;;;;;7.68;4.53;;;;;;;10.27;75.75;100273.03;5088697;28;20130;-75
2024/01/05 04:30:05;;;;;;;8.13;4.28;;;;;;;10.26;75.95;100265.97;5087750;28;20551;-76
2024/01/05 04:32:31;;;;;;;6.30;4.22;;;;;;;10.13;76.12;100250.03;5088183;28;20028;-74
2024/01/05 04:34:56;;;;;;;10.23;5.35;;;;;;;10.21;76.30;100274.41;5088463;28;20595;-75
2024/01/05 04:37:22;;;;;;;6.55;4.57;;;;;;;10.16;75.96;100265.03;5087445;28;20024;-76
2024/01/05 04:39:49;;;;;;;10.30;4.93;;;;;;;10.24;76.17;100267.94;5087174;28;20132;-78
2024/01/05 04:42:14;;;;;;;9.57;4.25;;;;;;;10.25;76.04;100283.06;5089755;28;20032;-74
2024/01/05 04:44:40;;;;;;;6.90;5.07;;;;;;;10.21;76.12;100279.78;5085697;28;20112;-75
2024/01/05 04:47:06;;;;;;;5.85;3.90;;;;;;;10.26;76.21;100288.31;5088259;28;20032;-74
2024/01/05 04:49:33;;;;;;;6.82;3.80;;;;;;;10.27;75.66;100281.09;5087999;28;20039;-76
2024/01/05 04:52:00;;;;;;;6.53;4.10;;;;;;;10.33;75.44;100294.88;5088382;28;20036;-74
2024/01/05 04:54:25;;;;;;;5.88;4.13;;;;;;;10.29;76.14;100289.88;5088456;28;20027;-76
2024/01/05 04:56:51;;;;;;;6.18;4.32;;;;;;;10.24;76.06;100284.06;5087824;28;20032;-75
2024/01/05 04:59:17;;;;;;;5.70;4.32;;;;;;;10.16;75.88;100260.50;5092664;28;20028;-74
2024/01/05 05:01:42;;;;;;;10.35;4.40;;;;;;;10.43;75.78;100315.59;5093004;28;20020;-73
2024/01/05 05:04:08;;;;;;;8.43;3.83;;;;;;;10.40;74.99;100313.16;5088053;28;20328;-76
2024/01/05 05:06:33;;;;;;;9.90;4.85;;;;;;;10.43;75.01;100310.22;5088394;28;20136;-75
2024/01/05 05:08:59;;;;;;;9.13;3.95;;;;;;;10.49;75.44;100325.81;5087675;28;20038;-74
2024/01/05 05:11:24;;;;;;;7.05;4.20;;;;;;;10.54;75.03;100323.59;5087677;28;20437;-75
2024/01/05 05:13:50;;;;;;;6.57;4.55;;;;;;;10.62;74.66;100332.69;5087743;28;20119;-75
2024/01/05 05:16:15;;;;;;;7.93;5.38;;;;;;;10.59;74.40;100327.56;5090617;28;20024;-74
2024/01/05 05:18:41;;;;;;;8.40;4.80;;;;;;;10.61;74.21;100328.28;5091566;28;20028;-77
2024/01/05 05:21:06;;;;;;;11.15;4.63;;;;;;;10.50;74.10;100322.13;5091819;28;20027;-76
2024/01/05 05:23:32;;;;;;;8.50;4.00;;;;;;;10.60;73.95;100348.13;5091899;28;20077;-75
2024/01/05 05:25:57;;;;;;;4.32;3.92;;;;;;;10.59;74.14;100353.59;5090940;28;20216;-75
2024/01/05 05:28:23;;;;;;;5.90;3.88;;;;;;;10.66;74.36;100381.69;5091385;28;20568;-76
2024/01/05 05:30:50;;;;;;;8.27;4.18;;;;;;;10.66;73.79;100381.69;5090925;28;20073;-74
2024/01/05 05:33:15;;;;;;;5.10;4.28;;;;;;;10.68;73.75;100379.72;5073165;28;20089;-75
2024/01/05 05:35:41;;;;;;;5.93;3.80;;;;;;;10.76;73.66;100375.38;5090889;28;20028;-76
2024/01/05 05:38:06;;;;;;;6.40;3.88;;;;;;;10.71;73.75;100385.69;5091504;28;20128;-76
2024/01/05 05:40:32;;;;;;;12.70;5.68;;;;;;;10.71;73.37;100385.69;5091293;28;20028;-75
2024/01/05 05:42:58;;;;;;;8.27;5.43;;;;;;;10.70;73.09;100389.34;5092097;28;20101;-76
2024/01/05 05:45:23;;;;;;;9.70;5.53;;;;;;;10.73;73.47;100399.84;5092419;28;20038;-76
2024/01/05 05:47:50;;;;;;;6.63;5.15;;;;;;;10.67;73.40;100395.00;5094158;28;20020;-77
2024/01/05 05:50:15;;;;;;;8.60;4.45;;;;;;;10.52;73.05;100369.41;5102692;28;20069;-75
2024/01/05 05:52:43;;;;;;;6.25;3.95;;;;;;;10.70;73.00;100405.47;5098285;28;20020;-75
2024/01/05 05:55:12;;;;;;;11.05;5.43;;;;;;;10.70;72.67;100410.88;5091183;28;20488;-75
2024/01/05 05:57:40;;;;;;;8.63;4.85;;;;;;;10.74;73.00;100409.63;5090629;28;20410;-74
2024/01/05 06:00:07;;;;;;;8.30;5.18;;;;;;;10.81;72.20;100418.03;5090798;28;20032;-76
2024/01/05 06:02:33;;;;;;;7.78;5.10;;;;;;;10.69;71.71;100409.19;5087924;28;20036;-74
2024/01/05 06:04:58;;;;;;;11.40;5.38;;;;;;;10.71;71.87;100423.34;5090860;28;20082;-74
2024/01/05 06:07:24;;;;;;;9.73;4.45;;;;;;;10.78;71.69;100440.66;5090142;28;20107;-76
2024/01/05 06:09:50;;;;;;;8.32;4.88;;;;;;;10.79;71.80;100447.75;5090681;28;20115;-77
2024/01/05 06:12:17;;;;;;;8.95;5.10;;;;;;;10.79;71.62;100446.91;5087908;28;20039;-75
2024/01/05 06:14:42;;;;;;;5.18;3.97;;;;;;;10.83;71.32;100441.13;5090066;28;20476;-76
2024/01/05 06:17:08;;;;;;;7.22;4.85;;;;;;;10.74;71.31;100433.84;5088052;28;20032;-78
2024/01/05 06:19:33;;;;;;;10.20;6.03;;;;;;;10.76;71.38;100439.94;5090504;28;20121;-75
2024/01/05 06:21:59;;;;;;;22.08;12.90;;;;;;;10.82;71.55;100458.22;5087103;28;20506;-75
2024/01/05 06:24:26;;;;;;;14.35;7.22;;;;;;;10.78;71.50;100461.34;5090860;28;20024;-74
2024/01/05 06:26:51;;;;;;;9.43;5.40;;;;;;;10.79;71.63;100450.44;5088221;28;20133;-75
2024/01/05 06:29:17;;;;;;;19.70;6.78;;;;;;;10.85;70.84;100458.00;5090649;28;20103;-74
2024/01/05 06:31:43;;;;;;;10.27;6.18;;;;;;;10.64;70.65;100419.44;5090626;28;20039;-75
2024/01/05 06:34:08;;;;;;;12.77;6.80;;;;;;;10.92;70.69;100467.25;5091543;28;20516;-73
2024/01/05 06:36:34;;;;;;;16.83;8.13;;;;;;;10.81;71.05;100461.94;5090608;28;20402;-72
2024/01/05 06:38:59;;;;;;;14.05;5.85;;;;;;;10.84;70.97;100469.75;5093282;28;20028;-73
2024/01/05 06:41:25;;;;;;;17.92;6.47;;;;;;;10.87;70.80;100455.16;5094984;28;20031;-73
2024/01/05 06:43:51;;;;;;;12.27;6.90;;;;;;;10.98;70.51;100462.34;5091424;28;20503;-74
2024/01/05 06:46:16;;;;;;;11.30;6.53;;;;;;;11.02;70.63;100463.75;5090201;28;20024;-76
2024/01/05 06:48:42;;;;;;;8.98;6.00;;;;;;;11.12;70.22;100453.91;5089840;28;20043;-75
2024/01/05 06:51:08;;;;;;;14.95;6.28;;;;;;;11.12;69.52;100467.38;5090549;28;20104;-74
2024/01/05 06:53:33;;;;;;;10.88;6.22;;;;;;;11.10;69.54;100469.34;5088461;28;20055;-74
2024/01/05 06:55:59;;;;;;;14.00;8.40;;;;;;;11.11;69.76;100465.66;5089435;28;20081;-75
2024/01/05 06:58:24;;;;;;;17.35;7.93;;;;;;;11.13;68.81;100469.91;5089194;28;20104;-76
2024/01/05 07:00:50;;;;;;;10.15;5.55;;;;;;;10.96;69.30;100450.84;5089302;28;20032;-74
2024/01/05 07:03:15;;;;;;;11.38;6.55;;;;;;;11.14;68.67;100476.16;5090313;28;20526;-75
2024/01/05 07:05:41;;;;;;;12.77;5.95;;;;;;;11.18;68.59;100483.00;5090170;28;20079;-74
2024/01/05 07:08:07;;;;;;;6.25;4.40;;;;;;;11.18;68.09;100481.16;5089253;28;20081;-73
2024/01/05 07:10:33;;;;;;;18.33;5.18;;;;;;;11.23;68.24;100488.81;5089469;28;20624;-73
2024/01/05 07:12:59;;;;;;;8.18;4.97;;;;;;;11.25;68.31;100497.66;5089648;28;20051;-75
2024/01/05 07:15:25;;;;;;;8.77;5.32;;;;;;;11.27;68.46;100501.91;5089721;28;20074;-75
2024/01/05 07:17:50;;;;;;;10.90;6.45;;;;;;;11.33;68.29;100503.22;5089671;28;20741;-74
2024/01/05 07:20:16;;;;;;;12.73;5.40;;;;;;;11.34;67.62;100507.63;5089463;28;20100;-76
2024/01/05 07:22:41;;;;;;;13.10;5.60;;;;;;;11.40;68.07;100507.94;5090062;28;20020;-76
2024/01/05 07:25:10;;;;;;;19.25;6.10;;;;;;;11.43;67.50;100499.59;5089545;28;20043;-74
2024/01/05 07:27:37;;;;;;;9.88;5.65;;;;;;;11.38;66.78;100482.13;5090168;28;20032;-75
2024/01/05 07:30:05;;;;;;;8.25;4.85;;;;;;;11.56;67.40;100512.00;5095609;28;20031;-75
2024/01/05 07:32:31;;;;;;;6.47;5.40;;;;;;;11.54;67.21;100525.59;5085681;28;20479;-75
2024/01/05 07:34:57;;;;;;;12.90;5.35;;;;;;;11.61;66.98;100518.69;5088415;28;20077;-74
2024/01/05 07:37:22;;;;;;;10.48;5.18;;;;;;;11.69;66.47;100524.25;5088534;28;20028;-73
2024/01/05 07:39:48;;;;;;;7.38;4.38;;;;;;;11.69;66.50;100524.25;5088072;28;20036;-77
2024/01/05 07:42:13;;;;;;;8.40;5.40;;;;;;;11.76;66.34;100525.47;5088434;28;20050;-75
2024/01/05 07:44:39;;;;;;;9.15;5.13;;;;;;;11.79;65.17;100529.72;5089328;28;20028;-78
2024/01/05 07:47:05;;;;;;;10.23;4.68;;;;;;;11.82;65.32;100541.09;5089201;28;20040;-74
2024/01/05 07:49:30;;;;;;;9.75;4.95;;;;;;;11.85;65.05;100546.19;5088384;28;20063;-74
2024/01/05 07:51:56;;;;;;;9.38;4.97;;;;;;;11.83;64.87;100541.94;5077599;28;20471;-77
2024/01/05 07:54:22;;;;;;;15.52;6.07;;;;;;;11.92;64.76;100550.06;5088206;28;20032;-73
2024/01/05 07:56:47;;;;;;;9.07;4.70;;;;;;;12.00;64.01;100561.00;5088500;28;21262;-76
2024/01/05 07:59:14;;;;;;;13.80;5.38;;;;;;;12.09;64.42;100566.56;5087071;28;20080;-75
2024/01/05 08:01:40;;;;;;;14.50;6.15;;;;;;;12.19;64.32;100571.03;5086928;28;20449;-74
2024/01/05 08:04:05;;;;;;;8.15;5.28;;;;;;;12.24;63.83;100576.00;5087863;28;20115;-75
2024/01/05 08:06:31;;;;;;;13.20;4.78;;;;;;;12.25;63.49;100575.00;5087972;28;20028;-76
2024/01/05 08:08:56;;;;;;;7.13;4.35;;;;;;;12.11;63.64;100540.34;5088271;28;20385;-76
2024/01/05 08:11:22;;;;;;;25.42;4.95;;;;;;;12.47;63.27;100601.78;5088383;28;20037;-72
2024/01/05 08:13:47;;;;;;;12.80;6.22;;;;;;;12.53;62.76;100601.22;5089221;28;20024;-71
2024/01/05 08:16:13;;;;;;;18.55;6.43;;;;;;;12.66;62.60;100598.28;5088659;28;20447;-75
2024/01/05 08:18:40;;;;;;;11.02;5.25;;;;;;;12.70;62.35;100605.09;5095010;28;20058;-76
2024/01/05 08:21:05;;;;;;;18.48;5.15;;;;;;;12.78;62.16;100598.00;5093165;28;20047;-74
2024/01/05 08:23:34;;;;;;;9.35;4.95;;;;;;;12.92;61.80;100603.00;5088335;28;20444;-75
2024/01/05 08:26:00;;;;;;;20.80;5.85;;;;;;;13.04;61.05;100618.06;5088118;28;20044;-73
2024/01/05 08:28:26;;;;;;;11.48;5.57;;;;;;;13.10;60.63;100605.88;5088591;28;20170;-74
2024/01/05 08:30:52;;;;;;;14.77;6.75;;;;;;;13.22;60.28;100595.78;5088525;28;20043;-74
2024/01/05 08:33:18;;;;;;;8.60;4.53;;;;;;;13.23;59.87;100586.72;5088542;28;20422;-75
2024/01/05 08:35:43;;;;;;;9.73;5.43;;;;;;;13.42;59.60;100595.63;5088441;28;20381;-75
2024/01/05 08:38:09;;;;;;;24.75;5.97;;;;;;;13.50;59.04;100605.72;5088168;28;20020;-75
2024/01/05 08:40:34;;;;;;;16.45;5.40;;;;;;;13.55;58.49;100590.78;5088359;28;20082;-76
2024/01/05 08:43:00;;;;;;;28.63;5.55;;;;;;;13.64;58.32;100589.91;5087966;28;20510;-77
2024/01/05 08:45:27;;;;;;;21.42;5.07;;;;;;;13.78;57.66;100588.63;5088355;28;20467;-75
2024/01/05 08:47:53;;;;;;;14.15;6.18;;;;;;;13.88;57.29;100596.72;5088289;28;20039;-75
2024/01/05 08:50:18;;;;;;;24.08;4.82;;;;;;;13.94;57.01;100588.84;5087715;28;20040;-76
2024/01/05 08:52:45;;;;;;;11.90;4.13;;;;;;;14.10;56.45;100607.16;5088032;28;20415;-76
2024/01/05 08:55:20;;;;;;;7.60;4.40;;;;;;;14.13;56.19;100607.72;5085222;28;20032;-75
2024/01/05 08:57:47;;;;;;;15.95;4.05;;;;;;;14.21;56.04;100606.97;5088361;28;20028;-75
2024/01/05 09:00:13;;;;;;;29.55;5.40;;;;;;;14.34;56.37;100595.84;5088680;28;20049;-74
2024/01/05 09:02:39;;;;;;;14.20;5.43;;;;;;;14.42;56.45;100582.41;5088915;28;20778;-74
2024/01/05 09:05:05;;;;;;;20.42;4.18;;;;;;;14.62;55.36;100597.53;5088881;28;20035;-74
2024/01/05 09:07:33;;;;;;;18.52;4.65;;;;;;;14.72;55.16;100609.16;5090071;28;20051;-73
2024/01/05 09:09:59;;;;;;;25.08;4.18;;;;;;;14.74;54.94;100606.31;5094130;28;21356;-75
2024/01/05 09:12:25;;;;;;;16.60;4.05;;;;;;;14.71;54.91;100599.31;5089465;28;20032;-74
2024/01/05 09:14:51;;;;;;;26.10;4.35;;;;;;;14.78;55.04;100596.88;5087857;28;20031;-77
2024/01/05 09:17:17;;;;;;;8.52;4.40;;;;;;;14.75;54.71;100587.19;5102474;28;20469;-75
2024/01/05 09:19:43;;;;;;;25.17;5.45;;;;;;;14.83;55.13;100595.41;5088030;28;20039;-76
2024/01/05 09:22:09;;;;;;;11.48;3.75;;;;;;;14.97;55.47;100597.59;5087259;28;20551;-74
2024/01/05 09:24:36;;;;;;;11.88;4.20;;;;;;;15.08;55.06;100604.63;5087767;28;20030;-73
2024/01/05 09:27:03;;;;;;;25.70;5.20;;;;;;;15.19;54.75;100599.00;5087931;28;20052;-78
2024/01/05 09:29:32;;;;;;;16.63;5.22;;;;;;;15.16;55.16;100573.09;5087981;28;20116;-75
2024/01/05 09:31:58;;;;;;;31.27;4.88;;;;;;;15.42;53.76;100599.34;5087426;28;20028;-76
2024/01/05 09:34:24;;;;;;;7.93;4.53;;;;;;;15.41;53.49;100594.97;5087535;28;20036;-76
2024/01/05 09:36:50;;;;;;;24.38;4.90;;;;;;;15.52;53.25;100597.44;5087333;28;20495;-75
2024/01/05 09:39:15;;;;;;;22.70;5.35;;;;;;;15.56;53.72;100596.16;5087814;28;20476;-74
2024/01/05 09:41:42;;;;;;;18.90;5.55;;;;;;;15.69;53.67;100601.97;5087358;28;20096;-80
2024/01/05 09:44:10;;;;;;;18.23;5.65;;;;;;;15.66;52.95;100594.16;5087806;28;20031;-74
2024/01/05 09:46:38;;;;;;;15.35;4.60;;;;;;;15.73;52.31;100608.81;5087640;28;20097;-75
2024/01/05 09:49:05;;;;;;;40.70;7.18;;;;;;;15.81;52.63;100600.72;5087731;28;20496;-76
2024/01/05 09:51:31;;;;;;;9.30;4.95;;;;;;;15.89;52.38;100611.63;5088472;28;20039;-77
2024/01/05 09:53:57;;;;;;;19.65;4.90;;;;;;;15.88;52.48;100625.34;5088503;28;20531;-76
2024/01/05 09:56:26;;;;;;;29.65;5.95;;;;;;;15.89;52.37;100600.78;5093705;28;20024;-83
2024/01/05 09:58:52;;;;;;;36.00;5.82;;;;;;;16.02;52.22;100600.38;5104687;28;20058;-78
2024/01/05 10:01:25;;;;;;;8.75;4.68;;;;;;;15.99;51.25;100600.69;5095892;28;20123;-81
2024/01/05 10:03:58;;;;;;;29.30;5.75;;;;;;;16.06;51.12;100607.16;5091643;28;20429;-80
2024/01/05 10:06:25;;;;;;;12.13;4.55;;;;;;;16.07;51.03;100604.28;5091148;28;20051;-79
2024/01/05 10:08:52;;;;;;;16.42;4.18;;;;;;;16.08;50.72;100588.88;5090862;28;20441;-76
2024/01/05 10:11:31;;;;;;;20.38;5.50;;;;;;;16.14;50.08;100582.78;5091248;28;20034;-79
2024/01/05 10:14:03;;;;;;;14.73;4.68;;;;;;;16.25;49.37;100602.34;5091323;28;20032;-80
2024/01/05 10:16:39;;;;;;;48.13;6.78;;;;;;;16.23;49.64;100604.38;5090636;28;20031;-75
2024/01/05 10:19:18;;;;;;;23.77;7.80;;;;;;;16.28;49.66;100604.75;5091097;28;20021;-76
2024/01/05 10:21:45;;;;;;;11.55;5.05;;;;;;;16.30;49.02;100586.41;5090340;28;20031;-75
2024/01/05 10:24:26;;;;;;;102.43;10.85;;;;;;;16.44;48.94;100617.56;5090683;28;20094;-75
2024/01/05 10:27:08;;;;;;;28.58;6.85;;;;;;;16.28;48.82;100599.31;5090456;28;20051;-77
2024/01/05 10:29:38;;;;;;;16.55;4.57;;;;;;;16.37;48.40;100610.19;5090458;28;20032;-76
2024/01/05 10:32:20;;;;;;;10.02;4.32;;;;;;;16.43;48.05;100598.69;5090973;28;20040;-75
2024/01/05 10:34:50;;;;;;;18.60;5.93;;;;;;;16.41;48.51;100579.88;5090673;28;20112;-79
2024/01/05 10:37:17;;;;;;;29.15;6.03;;;;;;;16.52;48.10;100582.28;5089298;28;20273;-79
2024/01/05 10:39:46;;;;;;;9.88;3.67;;;;;;;16.60;47.78;100585.06;5090642;28;20024;-77
2024/01/05 10:42:25;;;;;;;21.35;4.57;;;;;;;16.55;47.41;100586.56;5105944;28;20112;-77
2024/01/05 10:44:52;;;;;;;26.52;5.95;;;;;;;16.42;47.32;100559.00;5081248;28;20016;-76
2024/01/05 10:47:20;;;;;;;16.98;4.60;;;;;;;16.55;47.35;100564.84;5075259;28;20117;-77
2024/01/05 10:49:48;;;;;;;12.55;4.07;;;;;;;16.59;47.01;100566.22;5079134;28;20087;-75
2024/01/05 10:52:16;;;;;;;8.23;3.65;;;;;;;16.52;47.06;100562.41;5069979;28;20033;-76
2024/01/05 10:54:45;;;;;;;10.73;3.88;;;;;;;16.46;46.61;100534.06;5070667;28;20024;-76
2024/01/05 10:57:12;;;;;;;11.10;4.28;;;;;;;16.53;47.10;100562.25;5070031;28;20022;-75
2024/01/05 10:59:38;;;;;;;11.70;4.35;;;;;;;16.63;47.37;100556.72;5070097;28;20726;-75
2024/01/05 11:02:14;;;;;;;10.13;4.22;;;;;;;16.71;46.48;100548.59;5069601;28;20024;-76
2024/01/05 11:04:43;;;;;;;15.45;5.22;;;;;;;16.67;46.88;100558.94;5070154;28;20058;-74
2024/01/05 11:07:09;;;;;;;26.20;5.80;;;;;;;16.71;47.30;100545.88;5070046;28;20112;-73
2024/01/05 11:09:53;;;;;;;21.05;4.63;;;;;;;16.78;46.78;100550.50;5084236;28;20041;-76
2024/01/05 11:12:43;;;;;;;10.57;4.00;;;;;;;16.85;46.35;100550.66;5069290;28;20442;-75
2024/01/05 11:15:27;;;;;;;10.40;4.10;;;;;;;16.92;46.51;100548.97;5069647;28;20037;-74
2024/01/05 11:18:33;;;;;;;20.70;5.30;;;;;;;17.02;46.75;100546.97;5069289;28;20029;-74
2024/01/05 11:21:13;;;;;;;10.70;4.65;;;;;;;17.10;47.50;100552.41;5071057;28;20067;-82